Time;durP1;ratioP1;P1;durP2;ratioP2;P2;SDS_P1;SDS_P2;PMS_P1;PMS_P2;Temp;Humidity;BMP_temperature;BMP_pressure;BME280_temperature;BME280_humidity;BME280_pressure;Samples;Min_cycle;Max_cycle;Signal;HPM_P1;HPM_P2
2022/07/03 00:01:24;;;;;;;;;;;;;;;17.19;67.29;96722.69;5093714;28;19961;-72
2022/07/03 00:03:49;;;;;;;;;;;;;;;17.16;67.70;96728.53;5093968;28;19964;-73
2022/07/03 00:06:15;;;;;;;;;;;;;;;17.13;67.98;96733.50;5093638;28;19965;-72
2022/07/03 00:08:42;;;;;;;;;;;;;;;17.09;67.69;96727.91;5093737;28;20293;-72
2022/07/03 00:11:08;;;;;;;;;;;;;;;17.05;68.30;96734.78;5093864;28;20336;-72
2022/07/03 00:13:34;;;;;;;;;;;;;;;17.01;68.27;96741.66;5093838;28;20398;-72
2022/07/03 00:16:00;;;;;;;;;;;;;;;16.97;68.50;96735.25;5094211;28;19979;-72
2022/07/03 00:18:26;;;;;;;;;;;;;;;16.94;68.84;96735.75;5093687;28;19962;-72
2022/07/03 00:21:35;;;;;;;;;;;;;;;16.89;68.83;96733.06;5051417;28;20506;-72
2022/07/03 00:24:06;;;;;;;;;;;;;;;16.83;68.89;96727.69;5051274;28;20443;-72
2022/07/03 00:26:34;;;;;;;;;;;;;;;16.79;69.33;96729.22;5083900;28;19961;-72
2022/07/03 00:29:00;;;;;;;;;;;;;;;16.74;69.30;96725.72;5094043;28;19968;-72
2022/07/03 00:31:33;;;;;;;;;;;;;;;16.70;69.50;96730.72;5093500;28;20447;-72
2022/07/03 00:33:59;;;;;;;;;;;;;;;16.66;69.72;96724.31;5093645;28;19952;-72
2022/07/03 00:36:45;;;;;;;;;;;;;;;16.63;69.44;96722.97;5093557;28;19953;-71
2022/07/03 00:39:11;;;;;;;;;;;;;;;16.61;69.60;96727.72;5093187;28;19970;-72
2022/07/03 00:41:37;;;;;;;;;;;;;;;16.61;69.76;96724.28;5093886;28;19962;-72
2022/07/03 00:44:03;;;;;;;;;;;;;;;16.58;69.69;96727.41;5093639;28;19969;-73
2022/07/03 00:46:36;;;;;;;;;;;;;;;16.59;69.83;96729.81;5092709;28;19959;-71
2022/07/03 00:49:03;;;;;;;;;;;;;;;16.55;70.08;96725.28;5092903;28;19964;-72
2022/07/03 00:51:29;;;;;;;;;;;;;;;16.54;70.04;96721.81;5095955;28;20030;-72
2022/07/03 00:53:56;;;;;;;;;;;;;;;16.52;70.50;96723.13;5097496;28;19988;-72
2022/07/03 00:56:24;;;;;;;;;;;;;;;16.49;70.29;96711.19;5097168;28;19954;-72
2022/07/03 00:58:54;;;;;;;;;;;;;;;16.47;70.73;96720.44;5097268;28;19952;-72
2022/07/03 01:01:21;;;;;;;;;;;;;;;16.43;70.49;96717.47;5097268;28;19964;-72
2022/07/03 01:03:48;;;;;;;;;;;;;;;16.41;70.11;96717.69;5097021;28;19961;-72
2022/07/03 01:06:14;;;;;;;;;;;;;;;16.39;70.64;96716.38;5097150;28;19965;-72
2022/07/03 01:08:43;;;;;;;;;;;;;;;16.38;70.84;96720.06;5096965;28;20027;-72
2022/07/03 01:11:15;;;;;;;;;;;;;;;16.37;71.46;96727.19;5097147;28;19959;-72
2022/07/03 01:13:56;;;;;;;;;;;;;;;16.36;71.04;96727.47;5097053;28;19963;-72
2022/07/03 01:16:24;;;;;;;;;;;;;;;16.34;71.03;96721.63;5083875;28;19987;-71
2022/07/03 01:18:58;;;;;;;;;;;;;;;16.32;71.35;96726.34;5096969;28;19957;-72
2022/07/03 01:21:42;;;;;;;;;;;;;;;16.29;71.12;96718.88;5096745;28;19974;-72
2022/07/03 01:24:29;;;;;;;;;;;;;;;16.25;71.50;96723.88;5096884;28;20299;-72
2022/07/03 01:26:57;;;;;;;;;;;;;;;16.22;71.71;96722.53;5075424;28;20451;-72
2022/07/03 01:29:30;;;;;;;;;;;;;;;16.20;71.71;96732.56;5096800;28;19991;-72
2022/07/03 01:31:58;;;;;;;;;;;;;;;16.17;71.85;96724.31;5096964;28;19950;-72
2022/07/03 01:34:25;;;;;;;;;;;;;;;16.15;71.81;96723.78;5096626;28;19960;-72
2022/07/03 01:36:54;;;;;;;;;;;;;;;16.15;72.28;96726.41;5096681;28;20411;-72
2022/07/03 01:39:21;;;;;;;;;;;;;;;16.11;72.74;96726.09;5096570;28;20040;-72
2022/07/03 01:41:48;;;;;;;;;;;;;;;16.10;73.16;96731.63;5096415;28;20457;-73
2022/07/03 01:44:14;;;;;;;;;;;;;;;16.09;72.62;96725.56;5096439;28;19967;-72
2022/07/03 01:46:42;;;;;;;;;;;;;;;16.07;72.16;96722.34;5096494;28;19969;-72
2022/07/03 01:49:10;;;;;;;;;;;;;;;16.06;72.92;96726.03;5096239;28;19964;-72
2022/07/03 01:51:38;;;;;;;;;;;;;;;16.03;72.52;96721.25;5096414;28;19968;-72
2022/07/03 01:54:04;;;;;;;;;;;;;;;16.01;72.79;96733.91;5095995;28;20387;-72
2022/07/03 01:56:32;;;;;;;;;;;;;;;15.99;73.08;96728.06;5096478;28;20396;-72
2022/07/03 01:58:59;;;;;;;;;;;;;;;15.95;72.98;96724.31;5095996;28;19964;-72
2022/07/03 02:01:26;;;;;;;;;;;;;;;15.88;73.46;96719.19;5095702;28;19973;-72
2022/07/03 02:04:09;;;;;;;;;;;;;;;15.82;73.70;96710.38;5096396;28;19950;-72
2022/07/03 02:06:49;;;;;;;;;;;;;;;15.78;73.70;96711.91;5095952;28;20316;-72
2022/07/03 02:09:17;;;;;;;;;;;;;;;15.73;73.80;96705.78;5096130;28;19959;-72
2022/07/03 02:11:45;;;;;;;;;;;;;;;15.70;73.73;96707.03;5095761;28;19971;-72
2022/07/03 02:14:12;;;;;;;;;;;;;;;15.68;73.84;96709.09;5095649;28;20017;-71
2022/07/03 02:16:44;;;;;;;;;;;;;;;15.67;73.47;96704.09;5096072;28;19978;-71
2022/07/03 02:19:11;;;;;;;;;;;;;;;15.65;73.53;96709.59;5085062;28;20338;-72
2022/07/03 02:21:39;;;;;;;;;;;;;;;15.64;73.77;96710.63;5095825;28;19978;-71
2022/07/03 02:24:14;;;;;;;;;;;;;;;15.63;74.06;96715.13;5095594;28;19954;-72
2022/07/03 02:26:40;;;;;;;;;;;;;;;15.63;74.00;96709.06;5095878;28;19966;-72
2022/07/03 02:29:14;;;;;;;;;;;;;;;15.62;74.09;96710.06;5095595;28;19962;-72
2022/07/03 02:31:42;;;;;;;;;;;;;;;15.62;74.34;96712.72;5095492;28;19955;-72
2022/07/03 02:34:12;;;;;;;;;;;;;;;15.58;73.88;96699.22;5095274;28;20416;-72
2022/07/03 02:36:40;;;;;;;;;;;;;;;15.57;73.60;96694.94;5095668;28;20403;-72
2022/07/03 02:39:11;;;;;;;;;;;;;;;15.56;73.77;96703.94;5095496;28;19958;-72
2022/07/03 02:41:42;;;;;;;;;;;;;;;15.56;73.79;96711.03;5095194;28;20035;-72
2022/07/03 02:44:17;;;;;;;;;;;;;;;15.53;74.35;96706.25;5095385;28;20309;-72
2022/07/03 02:46:48;;;;;;;;;;;;;;;15.52;73.85;96716.03;5095265;28;19959;-72
2022/07/03 02:49:33;;;;;;;;;;;;;;;15.52;73.70;96718.69;5095968;28;19963;-72
2022/07/03 02:52:08;;;;;;;;;;;;;;;15.50;73.73;96723.41;5095033;28;19955;-72
2022/07/03 02:54:42;;;;;;;;;;;;;;;15.50;73.92;96717.31;5095136;28;19965;-72
2022/07/03 02:57:10;;;;;;;;;;;;;;;15.49;73.89;96721.78;5094762;28;19953;-72
2022/07/03 02:59:36;;;;;;;;;;;;;;;15.48;73.67;96725.50;5094785;28;19950;-73
2022/07/03 03:02:20;;;;;;;;;;;;;;;15.48;73.69;96727.34;5094264;28;20370;-71
2022/07/03 03:04:49;;;;;;;;;;;;;;;15.45;73.89;96723.31;5094797;28;19951;-72
2022/07/03 03:07:16;;;;;;;;;;;;;;;15.43;73.87;96728.88;5094995;28;19959;-72
2022/07/03 03:09:43;;;;;;;;;;;;;;;15.43;73.99;96730.69;5095150;28;19953;-72
2022/07/03 03:12:09;;;;;;;;;;;;;;;15.41;73.77;96730.13;5094612;28;20419;-72
2022/07/03 03:14:43;;;;;;;;;;;;;;;15.40;74.08;96741.75;5094008;28;19959;-72
2022/07/03 03:17:18;;;;;;;;;;;;;;;15.38;74.33;96746.47;5094655;28;19958;-72
2022/07/03 03:19:51;;;;;;;;;;;;;;;15.36;74.58;96749.34;5094390;28;19968;-72
2022/07/03 03:22:49;;;;;;;;;;;;;;;15.34;74.55;96751.44;5094536;28;19961;-72
2022/07/03 03:25:15;;;;;;;;;;;;;;;15.31;75.02;96743.22;5060397;28;20355;-71
2022/07/03 03:27:41;;;;;;;;;;;;;;;15.29;74.84;96747.94;5094283;28;20403;-71
2022/07/03 03:30:07;;;;;;;;;;;;;;;15.28;75.48;96744.47;5094121;28;19961;-72
2022/07/03 03:32:36;;;;;;;;;;;;;;;15.27;75.26;96748.16;5094433;28;19965;-72
2022/07/03 03:35:02;;;;;;;;;;;;;;;15.27;74.94;96747.38;5094200;28;19959;-72
2022/07/03 03:37:29;;;;;;;;;;;;;;;15.27;75.73;96747.38;5094136;28;19960;-72
2022/07/03 03:39:54;;;;;;;;;;;;;;;15.27;75.64;96745.53;5094373;28;19975;-72
2022/07/03 03:42:20;;;;;;;;;;;;;;;15.27;75.36;96748.16;5094118;28;19957;-72
2022/07/03 03:44:46;;;;;;;;;;;;;;;15.27;75.29;96750.00;5094460;28;19956;-72
2022/07/03 03:47:12;;;;;;;;;;;;;;;15.27;75.21;96750.00;5094741;28;20028;-73
2022/07/03 03:49:38;;;;;;;;;;;;;;;15.27;75.37;96763.22;5094099;28;19993;-72
2022/07/03 03:52:04;;;;;;;;;;;;;;;15.26;75.11;96745.75;5092896;28;19964;-72
2022/07/03 03:54:30;;;;;;;;;;;;;;;15.26;75.30;96749.19;5093411;28;19965;-72
2022/07/03 03:56:56;;;;;;;;;;;;;;;15.24;76.38;96740.69;5093922;28;20001;-72
2022/07/03 03:59:22;;;;;;;;;;;;;;;15.23;75.80;96750.47;5093769;28;20013;-72
2022/07/03 04:01:47;;;;;;;;;;;;;;;15.21;76.13;96744.63;5094215;28;20020;-72
2022/07/03 04:04:17;;;;;;;;;;;;;;;15.20;76.02;96750.97;5093942;28;20447;-72
2022/07/03 04:06:43;;;;;;;;;;;;;;;15.19;76.96;96753.84;5094234;28;19955;-71
2022/07/03 04:09:09;;;;;;;;;;;;;;;15.18;77.26;96760.16;5093999;28;19962;-73
2022/07/03 04:11:35;;;;;;;;;;;;;;;15.17;77.03;96769.94;5093873;28;19964;-72
2022/07/03 04:14:01;;;;;;;;;;;;;;;15.18;76.77;96765.44;5093694;28;19959;-73
2022/07/03 04:16:27;;;;;;;;;;;;;;;15.17;77.46;96758.56;5093943;28;20019;-73
2022/07/03 04:18:53;;;;;;;;;;;;;;;15.17;78.02;96771.78;5093768;28;20303;-72
2022/07/03 04:21:19;;;;;;;;;;;;;;;15.22;77.27;96769.19;5093518;28;20085;-73
2022/07/03 04:23:45;;;;;;;;;;;;;;;15.29;77.19;96774.34;5093787;28;19966;-73
2022/07/03 04:26:10;;;;;;;;;;;;;;;15.36;76.81;96781.06;5097573;28;19959;-73
2022/07/03 04:28:36;;;;;;;;;;;;;;;15.42;76.51;96779.31;5097709;28;19956;-73
2022/07/03 04:31:02;;;;;;;;;;;;;;;15.47;76.22;96774.09;5079611;28;19958;-73
2022/07/03 04:33:28;;;;;;;;;;;;;;;15.52;76.30;96776.84;5098261;28;20512;-73
2022/07/03 04:35:54;;;;;;;;;;;;;;;15.58;76.32;96783.81;5097820;28;19951;-73
2022/07/03 04:38:20;;;;;;;;;;;;;;;15.66;75.80;96779.13;5097709;28;19954;-73
2022/07/03 04:40:46;;;;;;;;;;;;;;;15.69;75.75;96784.75;5097442;28;19968;-72
2022/07/03 04:43:12;;;;;;;;;;;;;;;15.78;75.76;96785.16;5097525;28;19958;-72
2022/07/03 04:45:38;;;;;;;;;;;;;;;15.85;75.41;96783.16;5097911;28;20010;-72
2022/07/03 04:48:03;;;;;;;;;;;;;;;15.95;75.35;96777.22;5097968;28;19964;-72
2022/07/03 04:50:29;;;;;;;;;;;;;;;16.05;75.57;96780.00;5097494;28;19988;-72
2022/07/03 04:52:55;;;;;;;;;;;;;;;16.17;74.80;96777.25;5097220;28;20333;-72
2022/07/03 04:55:21;;;;;;;;;;;;;;;16.29;74.29;96779.75;5097419;28;19964;-72
2022/07/03 04:57:49;;;;;;;;;;;;;;;16.43;73.95;96776.50;5097303;28;19985;-72
2022/07/03 05:00:15;;;;;;;;;;;;;;;16.61;73.75;96779.88;5097196;28;20439;-73
2022/07/03 05:02:41;;;;;;;;;;;;;;;16.78;73.38;96774.50;5097374;28;20412;-72
2022/07/03 05:05:07;;;;;;;;;;;;;;;16.96;72.75;96779.47;5097614;28;20014;-72
2022/07/03 05:07:33;;;;;;;;;;;;;;;17.15;72.26;96781.75;5097052;28;19962;-72
2022/07/03 05:09:59;;;;;;;;;;;;;;;17.36;72.00;96775.59;5096956;28;20441;-72
2022/07/03 05:12:25;;;;;;;;;;;;;;;17.60;71.01;96775.25;5097261;28;19961;-73
2022/07/03 05:14:51;;;;;;;;;;;;;;;17.75;70.22;96769.25;5097118;28;19983;-73
2022/07/03 05:17:17;;;;;;;;;;;;;;;17.95;70.02;96769.38;5096817;28;20016;-73
2022/07/03 05:19:44;;;;;;;;;;;;;;;18.17;69.39;96771.09;5096902;28;19968;-72
2022/07/03 05:22:10;;;;;;;;;;;;;;;18.43;68.97;96770.13;5096628;28;19969;-73
2022/07/03 05:24:36;;;;;;;;;;;;;;;18.60;67.65;96756.66;5096940;28;20010;-73
2022/07/03 05:27:02;;;;;;;;;;;;;;;18.66;67.36;96760.13;5096172;28;19960;-73
2022/07/03 05:29:28;;;;;;;;;;;;;;;18.82;67.82;96768.97;5096959;28;19962;-72
2022/07/03 05:31:54;;;;;;;;;;;;;;;19.07;67.26;96757.59;5096585;28;20422;-72
2022/07/03 05:34:20;;;;;;;;;;;;;;;19.31;66.44;96749.09;5096516;28;19964;-73
2022/07/03 05:36:46;;;;;;;;;;;;;;;19.38;65.57;96749.59;5095939;28;19955;-72
2022/07/03 05:41:56;;;;;;;;;;;;;;;19.77;65.53;96746.41;5096827;28;19977;-73
2022/07/03 05:44:22;;;;;;;;;;;;;;;19.92;65.07;96750.91;5096369;28;20010;-73
2022/07/03 05:46:48;;;;;;;;;;;;;;;20.03;64.33;96736.47;5096731;28;19961;-72
2022/07/03 05:49:14;;;;;;;;;;;;;;;20.12;63.53;96731.41;5096543;28;20059;-73
2022/07/03 05:51:40;;;;;;;;;;;;;;;20.02;63.40;96734.91;5096513;28;20359;-73
2022/07/03 05:54:06;;;;;;;;;;;;;;;20.00;64.10;96745.03;5088897;28;20044;-73
2022/07/03 05:56:32;;;;;;;;;;;;;;;20.12;63.96;96739.41;5096469;28;19965;-73
2022/07/03 05:58:58;;;;;;;;;;;;;;;20.19;63.63;96739.91;5094802;28;20075;-73
2022/07/03 06:01:24;;;;;;;;;;;;;;;20.39;62.82;96728.34;5096490;28;19974;-73
2022/07/03 06:03:50;;;;;;;;;;;;;;;20.58;62.59;96717.88;5092384;28;20005;-73
2022/07/03 06:06:15;;;;;;;;;;;;;;;20.80;62.71;96728.97;5096018;28;20011;-73
2022/07/03 06:08:41;;;;;;;;;;;;;;;21.14;62.43;96728.19;5096202;28;19962;-73
2022/07/03 06:11:07;;;;;;;;;;;;;;;21.39;61.56;96715.72;5088493;28;19987;-73
2022/07/03 06:13:34;;;;;;;;;;;;;;;21.45;59.78;96703.94;5093385;28;20002;-73
2022/07/03 06:16:00;;;;;;;;;;;;;;;21.37;59.80;96704.53;5093281;28;19979;-73
2022/07/03 06:18:26;;;;;;;;;;;;;;;21.44;59.61;96705.00;5094325;28;20416;-73
2022/07/03 06:20:52;;;;;;;;;;;;;;;21.41;59.18;96703.69;5095511;28;19971;-73
2022/07/03 06:23:18;;;;;;;;;;;;;;;21.40;59.93;96707.44;5091409;28;19977;-73
2022/07/03 06:25:43;;;;;;;;;;;;;;;21.39;59.53;96710.38;5095709;28;20452;-73
2022/07/03 06:28:09;;;;;;;;;;;;;;;21.44;60.14;96721.84;5095687;28;20008;-73
2022/07/03 06:30:35;;;;;;;;;;;;;;;21.65;61.33;96729.66;5090690;28;20068;-73
2022/07/03 06:33:01;;;;;;;;;;;;;;;21.93;60.14;96716.56;5092801;28;19965;-72
2022/07/03 06:35:27;;;;;;;;;;;;;;;22.18;58.95;96704.78;5093856;28;20474;-73
2022/07/03 06:37:53;;;;;;;;;;;;;;;22.25;58.74;96703.38;5095585;28;20447;-73
2022/07/03 06:40:19;;;;;;;;;;;;;;;22.35;58.74;96707.00;5092827;28;19972;-73
2022/07/03 06:42:44;;;;;;;;;;;;;;;22.38;57.64;96706.41;5092895;28;19961;-73
2022/07/03 06:45:10;;;;;;;;;;;;;;;22.38;58.14;96707.22;5095103;28;20009;-73
2022/07/03 06:47:37;;;;;;;;;;;;;;;22.53;58.22;96706.19;5088035;28;20423;-73
2022/07/03 06:50:03;;;;;;;;;;;;;;;22.56;56.59;96694.16;5082489;28;19951;-74
2022/07/03 06:52:29;;;;;;;;;;;;;;;22.61;57.30;96707.44;5089359;28;19962;-73
2022/07/03 06:54:55;;;;;;;;;;;;;;;22.54;57.96;96710.47;5095393;28;20015;-73
2022/07/03 06:57:21;;;;;;;;;;;;;;;22.64;58.54;96709.56;5093855;28;20000;-73
2022/07/03 06:59:48;;;;;;;;;;;;;;;22.70;58.07;96711.06;5090385;28;19962;-73
2022/07/03 07:02:31;;;;;;;;;;;;;;;22.72;57.92;96711.59;5083447;28;19977;-73
2022/07/03 07:04:57;;;;;;;;;;;;;;;22.76;58.05;96712.56;5091880;28;20377;-73
2022/07/03 07:07:23;;;;;;;;;;;;;;;23.05;58.69;96717.00;5094164;28;19957;-73
2022/07/03 07:09:49;;;;;;;;;;;;;;;23.33;57.37;96701.03;5090759;28;19954;-73
2022/07/03 07:12:15;;;;;;;;;;;;;;;23.46;57.80;96698.38;5089177;28;19964;-73
2022/07/03 07:14:41;;;;;;;;;;;;;;;23.56;56.68;96692.06;5094370;28;19982;-73
2022/07/03 07:17:07;;;;;;;;;;;;;;;23.63;56.13;96687.09;5094640;28;20352;-73
2022/07/03 07:19:32;;;;;;;;;;;;;;;23.63;55.87;96692.47;5090925;28;20332;-73
2022/07/03 07:22:00;;;;;;;;;;;;;;;23.77;56.71;96700.56;5094552;28;19985;-73
2022/07/03 07:24:27;;;;;;;;;;;;;;;24.08;54.84;96675.81;5094487;28;19955;-73
2022/07/03 07:26:53;;;;;;;;;;;;;;;24.27;53.61;96662.31;5093945;28;19958;-73
2022/07/03 07:29:19;;;;;;;;;;;;;;;24.38;51.72;96641.41;5087068;28;19971;-74
2022/07/03 07:31:45;;;;;;;;;;;;;;;24.42;53.38;96667.34;5093356;28;20449;-73
2022/07/03 07:34:11;;;;;;;;;;;;;;;24.42;51.65;96661.16;5091569;28;19957;-73
2022/07/03 07:36:42;;;;;;;;;;;;;;;24.59;53.22;96666.72;5078185;28;19969;-73
2022/07/03 07:39:09;;;;;;;;;;;;;;;24.79;51.79;96665.47;5091602;28;20365;-73
2022/07/03 07:41:36;;;;;;;;;;;;;;;24.95;51.70;96665.91;5094151;28;19979;-73
2022/07/03 07:44:01;;;;;;;;;;;;;;;25.15;50.26;96661.91;5093884;28;19958;-73
2022/07/03 07:46:28;;;;;;;;;;;;;;;25.38;50.00;96678.03;5092299;28;19968;-73
2022/07/03 07:48:54;;;;;;;;;;;;;;;25.46;48.53;96693.38;5089418;28;19961;-73
2022/07/03 07:51:20;;;;;;;;;;;;;;;25.43;48.59;96718.97;5083477;28;19961;-72
2022/07/03 07:53:46;;;;;;;;;;;;;;;25.51;46.29;96710.16;5091711;28;20340;-72
2022/07/03 07:56:11;;;;;;;;;;;;;;;25.59;48.23;96718.56;5094092;28;19960;-72
2022/07/03 07:58:37;;;;;;;;;;;;;;;25.70;47.33;96709.13;5090042;28;20303;-72
2022/07/03 08:06:32;;;;;;;;;;;;;;;25.76;47.00;96721.31;5091778;28;20433;-72
2022/07/03 08:08:58;;;;;;;;;;;;;;;25.88;47.00;96723.44;5088683;28;19960;-71
2022/07/03 08:11:24;;;;;;;;;;;;;;;25.81;47.10;96723.91;5094505;28;20410;-72
2022/07/03 08:13:49;;;;;;;;;;;;;;;25.73;46.63;96722.75;5099585;28;20008;-72
2022/07/03 08:16:17;;;;;;;;;;;;;;;25.63;44.21;96714.16;5096948;28;19986;-72
2022/07/03 08:18:43;;;;;;;;;;;;;;;25.63;47.31;96735.66;5090807;28;19959;-72
2022/07/03 08:21:09;;;;;;;;;;;;;;;25.85;47.82;96732.09;5088714;28;20403;-72
2022/07/03 08:23:34;;;;;;;;;;;;;;;26.07;47.24;96724.00;5093927;28;20047;-72
2022/07/03 08:26:00;;;;;;;;;;;;;;;26.23;44.85;96718.22;5093989;28;19986;-72
2022/07/03 08:28:26;;;;;;;;;;;;;;;26.37;46.40;96721.56;5093758;28;20004;-72
2022/07/03 08:30:52;;;;;;;;;;;;;;;26.42;44.02;96710.66;5082627;28;19978;-72
2022/07/03 08:33:18;;;;;;;;;;;;;;;26.49;43.53;96719.06;5091441;28;20031;-72
2022/07/03 08:35:44;;;;;;;;;;;;;;;26.52;44.18;96717.63;5100316;28;19961;-72
2022/07/03 08:38:10;;;;;;;;;;;;;;;26.52;44.26;96720.31;5096154;28;19956;-73
2022/07/03 08:40:36;;;;;;;;;;;;;;;26.49;43.46;96718.28;5094568;28;19963;-72
2022/07/03 08:43:03;;;;;;;;;;;;;;;26.40;43.83;96715.56;5093629;28;20427;-73
2022/07/03 08:45:29;;;;;;;;;;;;;;;26.35;42.99;96715.69;5088609;28;20421;-72
2022/07/03 08:47:57;;;;;;;;;;;;;;;26.33;42.95;96705.28;5093025;28;20461;-72
2022/07/03 08:50:23;;;;;;;;;;;;;;;26.40;44.10;96710.19;5086887;28;19957;-72
2022/07/03 08:52:49;;;;;;;;;;;;;;;26.36;42.50;96705.75;5092022;28;20493;-72
2022/07/03 08:55:16;;;;;;;;;;;;;;;26.41;43.78;96713.66;5088107;28;19960;-73
2022/07/03 08:57:42;;;;;;;;;;;;;;;26.51;41.86;96694.53;5102601;28;19956;-72
2022/07/03 09:00:10;;;;;;;;;;;;;;;26.59;41.17;96701.06;5078079;28;20430;-72
2022/07/03 09:02:38;;;;;;;;;;;;;;;26.65;41.91;96705.97;5087324;28;20356;-71
2022/07/03 09:05:04;;;;;;;;;;;;;;;26.56;42.25;96712.41;5086739;28;19965;-72
2022/07/03 09:07:33;;;;;;;;;;;;;;;26.49;38.76;96686.00;5087423;28;19961;-73
2022/07/03 09:09:59;;;;;;;;;;;;;;;26.51;40.55;96706.09;5092129;28;19958;-74
2022/07/03 09:12:25;;;;;;;;;;;;;;;26.53;40.75;96705.78;5092017;28;20006;-72
2022/07/03 09:14:51;;;;;;;;;;;;;;;26.58;40.26;96702.16;5096675;28;19974;-74
2022/07/03 09:17:18;;;;;;;;;;;;;;;26.69;38.83;96685.41;5097016;28;20384;-74
2022/07/03 09:19:46;;;;;;;;;;;;;;;26.74;39.70;96687.16;5105687;28;19957;-74
2022/07/03 09:22:24;;;;;;;;;;;;;;;26.78;38.75;96690.78;5094561;28;19968;-74
2022/07/03 09:24:51;;;;;;;;;;;;;;;26.81;39.03;96686.66;5085045;28;19980;-74
2022/07/03 09:27:18;;;;;;;;;;;;;;;26.83;39.33;96697.91;5085291;28;19956;-74
2022/07/03 09:30:02;;;;;;;;;;;;;;;26.89;38.57;96689.34;5085872;28;19958;-74
2022/07/03 09:32:48;;;;;;;;;;;;;;;27.02;40.48;96700.28;5091545;28;19983;-74
2022/07/03 09:35:19;;;;;;;;;;;;;;;27.08;37.44;96694.41;5083253;28;19955;-75
2022/07/03 09:37:49;;;;;;;;;;;;;;;27.10;38.72;96702.94;5097888;28;19962;-74
2022/07/03 09:40:16;;;;;;;;;;;;;;;27.12;38.52;96697.25;5095774;28;19956;-76
2022/07/03 09:42:58;;;;;;;;;;;;;;;27.26;37.21;96683.66;5078598;28;19984;-74
2022/07/03 09:45:24;;;;;;;;;;;;;;;27.20;37.07;96682.22;5092004;28;19967;-74
2022/07/03 09:47:50;;;;;;;;;;;;;;;27.14;37.43;96678.88;5086235;28;19961;-74
2022/07/03 09:50:16;;;;;;;;;;;;;;;27.25;38.42;96696.31;5088103;28;19986;-74
2022/07/03 09:52:43;;;;;;;;;;;;;;;27.34;37.08;96680.16;5080758;28;19968;-75
2022/07/03 09:55:09;;;;;;;;;;;;;;;27.47;39.57;96702.63;5082023;28;19963;-74
2022/07/03 09:57:39;;;;;;;;;;;;;;;27.58;36.59;96674.19;5081225;28;19959;-74
2022/07/03 10:00:08;;;;;;;;;;;;;;;27.72;36.91;96677.47;5088940;28;19962;-73
2022/07/03 10:02:33;;;;;;;;;;;;;;;27.77;35.77;96678.41;5083359;28;19980;-74
2022/07/03 10:05:12;;;;;;;;;;;;;;;27.82;36.74;96681.69;5081427;28;19963;-74
2022/07/03 10:07:55;;;;;;;;;;;;;;;27.85;37.11;96672.19;5089323;28;19961;-74
2022/07/03 10:10:22;;;;;;;;;;;;;;;27.84;37.48;96690.25;5086444;28;19961;-74
2022/07/03 10:12:49;;;;;;;;;;;;;;;27.90;37.57;96690.91;5083696;28;19970;-75
2022/07/03 10:15:15;;;;;;;;;;;;;;;27.94;36.93;96678.34;5086696;28;19985;-75
2022/07/03 10:17:42;;;;;;;;;;;;;;;28.01;37.93;96688.63;5083730;28;19957;-74
2022/07/03 10:20:34;;;;;;;;;;;;;;;28.18;37.35;96676.97;5076726;28;19965;-75
2022/07/03 10:23:00;;;;;;;;;;;;;;;28.25;37.85;96686.13;5085225;28;19973;-73
2022/07/03 10:25:26;;;;;;;;;;;;;;;28.38;35.90;96668.09;5093756;28;20345;-76
2022/07/03 10:27:52;;;;;;;;;;;;;;;28.45;38.99;96681.84;5086598;28;20001;-74
2022/07/03 10:30:19;;;;;;;;;;;;;;;28.46;36.56;96664.56;5090136;28;19995;-74
2022/07/03 10:32:46;;;;;;;;;;;;;;;28.50;35.03;96657.41;5077613;28;20315;-75
2022/07/03 10:35:17;;;;;;;;;;;;;;;28.61;35.72;96670.53;5090441;28;19977;-73
2022/07/03 10:37:56;;;;;;;;;;;;;;;28.67;35.20;96658.41;5120720;27;20469;-73
2022/07/03 10:46:15;;;;;;;;;;;;;;;28.58;34.10;96665.75;5088868;28;19968;-74
2022/07/03 10:49:07;;;;;;;;;;;;;;;28.42;32.91;96658.25;5087212;28;19954;-73
2022/07/03 10:51:45;;;;;;;;;;;;;;;28.35;33.60;96655.28;5075685;28;19963;-73
2022/07/03 10:54:17;;;;;;;;;;;;;;;28.27;33.58;96661.53;5088769;28;20392;-73
2022/07/03 10:56:58;;;;;;;;;;;;;;;28.25;35.28;96666.47;5093044;28;19958;-73
2022/07/03 10:59:39;;;;;;;;;;;;;;;28.31;32.37;96652.44;5081615;28;20419;-74
2022/07/03 11:02:17;;;;;;;;;;;;;;;28.42;33.95;96655.53;5090601;28;20348;-73
2022/07/03 11:07:24;;;;;;;;;;;;;;;28.67;34.99;96651.09;5084740;28;19959;-74
2022/07/03 11:10:08;;;;;;;;;;;;;;;28.62;33.35;96640.50;5087561;28;20544;-73
2022/07/03 11:12:52;;;;;;;;;;;;;;;28.66;34.67;96646.03;5083681;28;19956;-73
2022/07/03 11:15:30;;;;;;;;;;;;;;;28.78;33.71;96640.69;5084196;28;19976;-73
2022/07/03 11:18:12;;;;;;;;;;;;;;;28.80;32.31;96638.44;5076075;28;19973;-73
2022/07/03 11:20:57;;;;;;;;;;;;;;;28.87;34.88;96644.09;5092807;28;20413;-73
2022/07/03 11:23:26;;;;;;;;;;;;;;;29.05;33.89;96641.22;5085407;28;19980;-72
2022/07/03 11:25:52;;;;;;;;;;;;;;;29.02;31.59;96623.78;5104223;28;19956;-72
2022/07/03 11:28:30;;;;;;;;;;;;;;;28.91;31.84;96634.19;5094561;28;19963;-72
2022/07/03 11:31:14;;;;;;;;;;;;;;;28.90;33.44;96635.34;5094459;28;19964;-72
2022/07/03 11:33:47;;;;;;;;;;;;;;;29.12;33.33;96626.06;5094017;28;19974;-73
2022/07/03 11:36:16;;;;;;;;;;;;;;;29.21;31.77;96617.91;5096747;28;19953;-74
2022/07/03 11:38:45;;;;;;;;;;;;;;;29.28;34.09;96628.94;5100367;28;19962;-71
2022/07/03 11:41:12;;;;;;;;;;;;;;;29.39;31.47;96615.00;5093260;28;19954;-70
2022/07/03 11:43:46;;;;;;;;;;;;;;;29.42;31.99;96608.91;5094433;28;20445;-71
2022/07/03 11:46:16;;;;;;;;;;;;;;;29.53;31.54;96610.84;5079511;28;20295;-72
2022/07/03 11:48:42;;;;;;;;;;;;;;;29.61;30.34;96605.66;5094605;28;19962;-74
2022/07/03 11:51:08;;;;;;;;;;;;;;;29.74;32.56;96616.16;5094058;28;20373;-73
2022/07/03 11:53:35;;;;;;;;;;;;;;;29.95;31.66;96599.81;5094513;28;19961;-74
2022/07/03 11:56:10;;;;;;;;;;;;;;;30.14;30.99;96598.44;5094050;28;19964;-74
2022/07/03 11:58:41;;;;;;;;;;;;;;;30.11;29.24;96593.69;5094047;28;19966;-74
2022/07/03 12:01:08;;;;;;;;;;;;;;;30.07;30.35;96603.63;5094382;28;19969;-74
2022/07/03 12:03:34;;;;;;;;;;;;;;;30.21;32.70;96614.09;5094025;28;20355;-73
2022/07/03 12:06:00;;;;;;;;;;;;;;;30.33;30.65;96597.84;5095353;28;19957;-73
2022/07/03 12:08:27;;;;;;;;;;;;;;;30.48;31.95;96605.25;5095141;28;19958;-73
2022/07/03 12:11:12;;;;;;;;;;;;;;;30.57;30.27;96596.97;5093754;28;19952;-73
2022/07/03 12:13:38;;;;;;;;;;;;;;;30.65;29.21;96581.72;5101689;28;19958;-74
2022/07/03 12:16:06;;;;;;;;;;;;;;;30.79;30.74;96587.53;5098990;28;19977;-74
2022/07/03 12:18:45;;;;;;;;;;;;;;;30.74;28.00;96582.34;5093905;28;20331;-73
2022/07/03 12:21:11;;;;;;;;;;;;;;;30.64;29.08;96582.84;5093537;28;19954;-74
2022/07/03 12:23:43;;;;;;;;;;;;;;;30.47;29.58;96590.16;5093140;28;19972;-72
2022/07/03 12:26:09;;;;;;;;;;;;;;;30.35;28.95;96590.19;5085927;28;19968;-74
2022/07/03 12:28:35;;;;;;;;;;;;;;;30.30;29.01;96585.81;5097021;28;19966;-73
2022/07/03 12:31:01;;;;;;;;;;;;;;;30.24;30.36;96591.75;5089304;28;20432;-72
2022/07/03 12:33:28;;;;;;;;;;;;;;;30.37;31.74;96593.34;5086509;28;19973;-73
2022/07/03 12:36:07;;;;;;;;;;;;;;;30.53;29.66;96571.72;5094898;28;19966;-73
2022/07/03 12:38:33;;;;;;;;;;;;;;;30.71;30.54;96570.28;5090479;28;19968;-73
2022/07/03 12:41:07;;;;;;;;;;;;;;;30.87;30.94;96573.06;5093070;28;19962;-73
2022/07/03 12:43:39;;;;;;;;;;;;;;;31.00;29.93;96562.97;5093544;28;20332;-73
2022/07/03 12:46:17;;;;;;;;;;;;;;;31.08;28.08;96553.88;5092861;28;19952;-73
2022/07/03 12:48:51;;;;;;;;;;;;;;;30.99;27.02;96550.53;5085065;28;20455;-72
2022/07/03 12:51:36;;;;;;;;;;;;;;;30.96;27.31;96551.25;5099594;28;19963;-72
2022/07/03 12:54:02;;;;;;;;;;;;;;;30.95;29.41;96555.88;5097732;28;19965;-72
2022/07/03 12:56:28;;;;;;;;;;;;;;;31.10;28.42;96548.91;5082135;28;20627;-72
2022/07/03 13:01:38;;;;;;;;;;;;;;;31.30;27.83;96540.84;5084375;28;19969;-74
2022/07/03 13:04:06;;;;;;;;;;;;;;;31.39;26.98;96529.81;5085039;28;19989;-73
2022/07/03 13:06:32;;;;;;;;;;;;;;;31.51;28.12;96537.88;5097263;28;19951;-73
2022/07/03 13:08:59;;;;;;;;;;;;;;;31.60;27.04;96537.69;5094482;28;20159;-76
2022/07/03 13:11:25;;;;;;;;;;;;;;;31.65;24.35;96532.00;5083864;28;19971;-74
2022/07/03 13:13:51;;;;;;;;;;;;;;;31.65;25.00;96530.09;5109047;28;19965;-74
2022/07/03 13:16:27;;;;;;;;;;;;;;;31.61;26.46;96542.78;5096837;28;20507;-73